Terminal Aerodrome Forecast
Issued by NWS North Platte, NE

Home | Current Version | Previous Version | Graphics & Text | Print | Product List | Glossary Off
Versions: 1 2 3 4 5 6 7 8 9 10 11 12 13 14 15 16 17 18 19 20

000
FTUS43 KLBF 290500
TAFVTN
TAF
KVTN 290520Z 2906/3006 28008KT P6SM SCT250 WS015/29044KT
     FM291100 25012KT P6SM SCT120
     FM291700 26013G22KT P6SM SCT120
     FM300200 27010KT P6SM SCT250=

USA.gov is the U.S. government's official web portal to all federal, state and local government web resources and services.